Terminal Aerodrome Forecast
Issued by NWS

Home | Current Version | Previous Version | Text Only | Print | Product List | Glossary On
Versions: 1 2 3 4 5 6 7 8 9 10 11 12 13 14 15 16 17 18
000
FTUS42 KFFC 050335 AAA
TAFRYY
TAF AMD
KRYY 050335Z 0504/0524 04003KT P6SM SCT070 SCT250
     FM050500 06003KT P6SM SCT110
      TEMPO 0508/0512 4SM BR
     FM051400 08005KT P6SM SCT050
     FM051800 08006KT P6SM VCSH BKN050 PROB30 0518/0524 5SM -TSRA
      BKN045CB
      AMD NOT SKED 0504/0512=

USA.gov is the U.S. government's official web portal to all federal, state and local government web resources and services.